createdAt,value
2023-01-19T00:03:49.300Z,0
2023-01-19T00:18:46.113Z,0
2023-01-19T00:33:42.013Z,0
2023-01-19T00:48:37.741Z,0
2023-01-19T01:03:34.058Z,0
2023-01-19T01:18:30.052Z,0
2023-01-19T01:33:40.366Z,0
2023-01-19T01:48:22.063Z,0
2023-01-19T02:03:18.371Z,0
2023-01-19T02:18:13.858Z,0
2023-01-19T02:33:09.922Z,0
2023-01-19T02:48:05.539Z,0
2023-01-19T03:03:02.693Z,0
2023-01-19T03:17:58.530Z,0
2023-01-19T03:32:54.815Z,0
2023-01-19T03:47:50.128Z,0
2023-01-19T04:02:46.368Z,0
2023-01-19T04:17:42.375Z,0
2023-01-19T04:32:39.144Z,0
2023-01-19T04:47:35.645Z,0
2023-01-19T05:02:32.332Z,0
2023-01-19T05:17:28.784Z,0
2023-01-19T05:32:25.254Z,0
2023-01-19T05:47:21.319Z,0
2023-01-19T06:02:17.426Z,0
2023-01-19T06:17:13.349Z,0
2023-01-19T06:32:09.845Z,0
2023-01-19T06:47:14.859Z,0
2023-01-19T07:02:25.936Z,0
2023-01-19T07:16:59.639Z,0
2023-01-19T07:31:55.837Z,0
2023-01-19T07:46:51.955Z,0
2023-01-19T08:01:48.297Z,0
2023-01-19T08:16:43.929Z,0
2023-01-19T08:31:40.144Z,0
2023-01-19T08:46:36.641Z,0
2023-01-19T09:01:32.759Z,0.01
2023-01-19T09:16:29.137Z,0.02
2023-01-19T09:31:25.449Z,0
2023-01-19T09:46:21.597Z,0.01
2023-01-19T10:01:18.153Z,0.03
2023-01-19T10:16:13.858Z,0.01
2023-01-19T10:31:10.541Z,0.03
2023-01-19T10:46:06.910Z,0.09
2023-01-19T11:01:03.397Z,0.05
2023-01-19T11:15:59.366Z,0.05
2023-01-19T11:30:55.928Z,0.11
2023-01-19T11:45:52.132Z,0.1
2023-01-19T12:00:48.543Z,0.11
2023-01-19T12:15:44.287Z,0.13
2023-01-19T12:30:40.839Z,0.12
2023-01-19T12:45:36.739Z,0.13
2023-01-19T13:00:33.075Z,0.16
2023-01-19T13:15:29.423Z,0.16
2023-01-19T13:30:25.914Z,0.18
2023-01-19T13:45:21.600Z,0.11
2023-01-19T14:00:17.614Z,0.13
2023-01-19T14:15:13.580Z,0.1
2023-01-19T14:30:09.559Z,0.1
2023-01-19T14:45:06.081Z,0.08
2023-01-19T15:29:54.400Z,0.05
2023-01-19T15:44:50.568Z,0.02
2023-01-19T15:59:46.396Z,0.01
2023-01-19T16:14:41.734Z,0.02
2023-01-19T16:29:37.714Z,0.01
2023-01-19T16:44:34.341Z,0
2023-01-19T16:59:30.491Z,0
2023-01-19T17:14:26.502Z,0
2023-01-19T17:29:22.391Z,0
2023-01-19T17:44:18.572Z,0
2023-01-19T17:59:14.385Z,0
2023-01-19T18:14:10.645Z,0
2023-01-19T18:29:07.060Z,0
2023-01-19T18:44:02.786Z,0
2023-01-19T18:58:58.768Z,0
2023-01-19T19:13:54.553Z,0
2023-01-19T19:28:50.419Z,0
2023-01-19T19:43:46.326Z,0
2023-01-19T19:58:41.907Z,0
2023-01-19T20:13:37.906Z,0
2023-01-19T20:28:33.999Z,0
2023-01-19T20:43:30.682Z,0
2023-01-19T20:58:27.226Z,0
2023-01-19T21:13:23.447Z,0
2023-01-19T21:28:19.972Z,0
2023-01-19T21:43:16.158Z,0
2023-01-19T21:58:12.137Z,0
2023-01-19T22:13:08.150Z,0
2023-01-19T22:28:04.662Z,0
2023-01-19T22:43:00.730Z,0
2023-01-19T22:57:56.718Z,0
2023-01-19T23:12:52.437Z,0
2023-01-19T23:27:49.034Z,0
2023-01-19T23:42:45.655Z,0
2023-01-19T23:57:41.863Z,0
